createdAt,value
2018-08-22T00:01:01.182Z,2.00
2018-08-22T00:04:17.397Z,2.33
2018-08-22T00:07:34.795Z,2.50
2018-08-22T00:10:38.080Z,2.53
2018-08-22T00:14:02.633Z,2.20
2018-08-22T00:17:32.839Z,2.17
2018-08-22T00:24:24.382Z,2.90
2018-08-22T00:27:38.030Z,2.40
2018-08-22T00:30:49.357Z,2.37
2018-08-22T00:37:50.538Z,2.30
2018-08-22T00:41:08.907Z,2.20
2018-08-22T00:44:33.152Z,2.47
2018-08-22T00:48:00.406Z,2.10
2018-08-22T00:55:00.891Z,2.30
2018-08-22T00:58:10.481Z,2.87
2018-08-22T01:01:19.236Z,2.50
2018-08-22T01:04:46.330Z,2.40
2018-08-22T01:07:59.211Z,2.10
2018-08-22T01:11:32.859Z,2.63
2018-08-22T01:14:47.942Z,2.40
2018-08-22T01:17:53.832Z,2.27
2018-08-22T01:24:26.085Z,2.60
2018-08-22T01:27:42.898Z,2.50
2018-08-22T01:31:03.968Z,2.60
2018-08-22T01:34:14.718Z,2.37
2018-08-22T01:37:26.923Z,2.67
2018-08-22T01:40:43.918Z,2.20
2018-08-22T01:43:59.728Z,2.33
2018-08-22T01:47:30.594Z,2.20
2018-08-22T01:50:50.124Z,2.37
2018-08-22T01:54:04.996Z,2.83
2018-08-22T01:57:24.981Z,2.63
2018-08-22T02:00:44.063Z,2.10
2018-08-22T02:04:01.572Z,12.27
2018-08-22T02:07:21.167Z,11.03
2018-08-22T02:10:45.537Z,3.20
2018-08-22T02:14:02.462Z,2.60
2018-08-22T02:17:18.280Z,2.67
2018-08-22T02:20:27.453Z,2.60
2018-08-22T02:23:46.860Z,2.47
2018-08-22T02:27:01.316Z,2.93
2018-08-22T02:30:19.265Z,2.77
2018-08-22T02:33:42.083Z,2.20
2018-08-22T02:36:59.338Z,2.47
2018-08-22T02:40:17.731Z,2.40
2018-08-22T02:43:38.094Z,2.70
2018-08-22T02:46:59.631Z,2.60
2018-08-22T02:50:16.636Z,10.43
2018-08-22T02:53:35.919Z,7.27
2018-08-22T02:57:04.581Z,3.30
2018-08-22T03:00:31.681Z,2.70
2018-08-22T03:03:46.587Z,2.63
2018-08-22T03:07:12.184Z,2.87
2018-08-22T03:10:35.237Z,3.07
2018-08-22T03:17:18.259Z,15.00
2018-08-22T03:20:32.107Z,18.60
2018-08-22T03:23:48.525Z,3.30
2018-08-22T03:27:20.689Z,72.07
2018-08-22T03:30:37.619Z,20.87
2018-08-22T03:33:58.633Z,7.67
2018-08-22T03:37:36.420Z,4.90
2018-08-22T03:45:27.159Z,4.00
2018-08-22T04:24:29.126Z,2.93
2018-08-22T04:27:48.845Z,3.80
2018-08-22T04:31:12.598Z,3.53
2018-08-22T04:34:53.215Z,3.30
2018-08-22T06:34:14.202Z,5.17
2018-08-22T06:37:46.477Z,5.87
2018-08-22T06:49:05.828Z,3.90
2018-08-22T06:52:35.833Z,3.60
2018-08-22T06:56:04.568Z,4.23
2018-08-22T06:59:30.881Z,3.13
2018-08-22T07:38:55.016Z,4.30
2018-08-22T07:42:11.677Z,3.63
2018-08-22T07:45:46.475Z,6.70
2018-08-22T07:53:28.807Z,2.83
2018-08-22T08:00:24.619Z,3.10
2018-08-22T08:03:52.828Z,4.77
2018-08-22T08:07:13.036Z,4.57
2018-08-22T08:18:05.451Z,3.17
2018-08-22T08:21:24.725Z,2.93
2018-08-22T08:24:37.831Z,3.97
2018-08-22T09:12:01.335Z,2.40
2018-08-22T09:15:05.557Z,2.70
2018-08-22T09:18:09.111Z,3.97
2018-08-22T09:21:29.378Z,2.83
2018-08-22T09:44:04.075Z,1.80
2018-08-22T09:47:07.321Z,1.80
2018-08-22T09:50:13.514Z,2.17
2018-08-22T09:53:18.312Z,2.50
2018-08-22T09:56:21.478Z,11.77
2018-08-22T09:59:24.979Z,10.53
2018-08-22T10:02:31.241Z,13.77
2018-08-22T10:05:39.588Z,4.00
2018-08-22T10:08:46.378Z,4.10
2018-08-22T10:11:52.380Z,2.30
2018-08-22T10:14:58.445Z,1.67
2018-08-22T10:18:04.155Z,1.83
2018-08-22T10:21:08.826Z,2.07
2018-08-22T10:24:12.690Z,2.00
2018-08-22T10:27:19.499Z,1.77
2018-08-22T10:30:24.957Z,1.87
2018-08-22T10:33:29.495Z,2.27
2018-08-22T10:36:32.854Z,1.40
2018-08-22T10:39:36.113Z,2.97
2018-08-22T10:42:39.333Z,13.43
2018-08-22T10:45:42.481Z,2.00
2018-08-22T10:48:45.706Z,1.97
2018-08-22T10:51:48.975Z,1.70
2018-08-22T10:54:52.251Z,2.00
2018-08-22T10:57:55.540Z,1.77
2018-08-22T11:00:58.816Z,1.80
2018-08-22T11:04:02.000Z,1.57
2018-08-22T11:07:05.253Z,1.57
2018-08-22T11:10:08.548Z,1.83
2018-08-22T11:13:12.082Z,4.17
2018-08-22T11:16:15.354Z,1.70
2018-08-22T11:19:19.624Z,1.70
2018-08-22T11:22:34.152Z,2.90
2018-08-22T11:25:49.158Z,1.47
2018-08-22T11:29:03.980Z,1.77
2018-08-22T11:32:18.685Z,1.73
2018-08-22T11:35:21.004Z,2.10
2018-08-22T11:38:24.311Z,1.70
2018-08-22T11:41:27.561Z,2.10
2018-08-22T11:44:30.948Z,1.93
2018-08-22T11:47:34.392Z,1.83
2018-08-22T11:50:37.804Z,2.30
2018-08-22T11:53:41.098Z,2.50
2018-08-22T11:56:44.473Z,1.70
2018-08-22T11:59:47.880Z,1.80
2018-08-22T12:02:51.289Z,23.53
2018-08-22T12:05:54.742Z,2.23
2018-08-22T12:09:01.134Z,1.70
2018-08-22T12:12:04.432Z,1.67
2018-08-22T12:15:07.749Z,1.90
2018-08-22T12:18:11.075Z,2.00
2018-08-22T12:21:15.247Z,1.70
2018-08-22T12:24:19.395Z,2.30
2018-08-22T12:27:22.771Z,1.80
2018-08-22T12:30:26.094Z,1.67
2018-08-22T12:33:29.479Z,1.77
2018-08-22T12:36:32.777Z,1.60
2018-08-22T12:39:36.842Z,1.70
2018-08-22T12:42:40.204Z,1.73
2018-08-22T12:45:44.421Z,1.60
2018-08-22T12:48:47.665Z,2.30
2018-08-22T12:51:50.949Z,2.00
2018-08-22T12:54:54.286Z,2.00
2018-08-22T12:57:57.561Z,1.77
2018-08-22T13:01:00.886Z,1.70
2018-08-22T13:04:04.408Z,2.70
2018-08-22T13:07:07.685Z,1.80
2018-08-22T13:10:11.079Z,2.00
2018-08-22T13:13:14.414Z,1.93
2018-08-22T13:16:17.900Z,12.73
2018-08-22T13:19:21.418Z,4.23
2018-08-22T13:22:25.623Z,14.97
2018-08-22T13:25:29.141Z,39.57
2018-08-22T13:28:33.013Z,13.63
2018-08-22T13:31:36.362Z,9.70
2018-08-22T13:34:39.822Z,4.00
2018-08-22T13:37:43.119Z,2.43
2018-08-22T13:40:46.423Z,1.70
2018-08-22T13:43:49.715Z,1.80
2018-08-22T13:46:53.116Z,3.23
2018-08-22T13:49:56.457Z,2.60
2018-08-22T13:52:59.888Z,2.67
2018-08-22T13:56:03.269Z,2.50
2018-08-22T13:59:06.497Z,2.30
2018-08-22T14:02:09.800Z,1.90
2018-08-22T14:05:13.953Z,1.93
2018-08-22T14:08:17.327Z,3.50
2018-08-22T14:11:20.616Z,2.93
2018-08-22T14:14:24.024Z,2.60
2018-08-22T14:17:27.624Z,1.90
2018-08-22T14:20:31.053Z,2.20
2018-08-22T14:23:34.570Z,1.93
2018-08-22T14:26:38.364Z,1.63
2018-08-22T14:29:42.116Z,2.43
2018-08-22T14:32:45.654Z,5.37
2018-08-22T14:35:49.056Z,2.33
2018-08-22T14:38:52.556Z,2.00
2018-08-22T14:41:55.956Z,2.60
2018-08-22T14:44:59.428Z,1.80
2018-08-22T14:48:02.869Z,1.70
2018-08-22T14:51:06.968Z,2.00
2018-08-22T14:54:10.464Z,1.80
2018-08-22T14:57:13.833Z,2.20
2018-08-22T15:00:17.408Z,2.43
2018-08-22T15:03:21.188Z,2.20
2018-08-22T15:06:25.233Z,2.20
2018-08-22T15:09:28.915Z,8.00
2018-08-22T15:12:32.314Z,3.40
2018-08-22T15:15:35.743Z,2.90
2018-08-22T15:18:39.326Z,2.10
2018-08-22T15:21:42.819Z,4.07
2018-08-22T15:24:46.420Z,2.17
2018-08-22T15:27:50.282Z,5.17
2018-08-22T15:30:53.782Z,2.57
2018-08-22T15:33:57.281Z,1.90
2018-08-22T15:37:00.958Z,8.30
2018-08-22T15:40:04.455Z,4.50
2018-08-22T15:43:09.169Z,3.23
2018-08-22T15:46:12.716Z,2.20
2018-08-22T15:49:16.393Z,9.73
2018-08-22T15:52:22.049Z,3.03
2018-08-22T15:55:25.709Z,2.27
2018-08-22T15:58:29.268Z,1.83
2018-08-22T16:01:33.383Z,46.47
2018-08-22T16:04:52.891Z,13.83
2018-08-22T16:07:56.429Z,2.10
2018-08-22T16:11:04.528Z,2.43
2018-08-22T16:14:08.364Z,2.37
2018-08-22T16:17:12.369Z,2.00
2018-08-22T16:20:16.939Z,2.03
2018-08-22T16:23:23.102Z,3.30
2018-08-22T16:26:27.732Z,2.87
2018-08-22T16:29:33.136Z,1.80
2018-08-22T16:32:36.927Z,1.70
2018-08-22T16:35:43.615Z,1.70
2018-08-22T16:38:48.011Z,1.90
2018-08-22T16:41:51.789Z,9.83
2018-08-22T16:44:55.752Z,11.40
2018-08-22T16:47:59.227Z,3.20
2018-08-22T16:51:03.538Z,3.07
2018-08-22T16:54:09.731Z,3.90
2018-08-22T16:57:13.199Z,2.33
2018-08-22T17:00:16.911Z,6.33
2018-08-22T17:03:20.466Z,5.97
2018-08-22T17:06:27.178Z,3.77
2018-08-22T17:09:30.537Z,8.80
2018-08-22T17:12:40.120Z,21.57
2018-08-22T17:15:44.093Z,11.63
2018-08-22T17:18:47.884Z,8.80
2018-08-22T17:21:54.192Z,5.17
2018-08-22T17:24:59.487Z,5.37
2018-08-22T17:28:05.042Z,3.90
2018-08-22T17:31:13.876Z,4.10
2018-08-22T17:34:17.644Z,5.80
2018-08-22T17:37:25.049Z,5.00
2018-08-22T17:40:30.007Z,4.87
2018-08-22T17:44:08.463Z,9.87
2018-08-22T17:47:20.589Z,10.53
2018-08-22T17:50:24.313Z,8.63
2018-08-22T17:53:28.463Z,62.00
2018-08-22T17:56:33.650Z,53.00
2018-08-22T17:59:38.053Z,63.13
2018-08-22T18:02:41.902Z,21.97
2018-08-22T18:05:45.546Z,14.10
2018-08-22T18:08:50.439Z,10.03
2018-08-22T18:11:54.443Z,9.67
2018-08-22T18:15:01.244Z,6.70
2018-08-22T18:18:06.883Z,4.63
2018-08-22T18:21:10.559Z,5.63
2018-08-22T18:24:15.325Z,10.50
2018-08-22T18:27:19.015Z,5.83
2018-08-22T18:30:22.758Z,10.27
2018-08-22T18:33:27.146Z,28.30
2018-08-22T18:36:31.947Z,19.13
2018-08-22T18:39:35.941Z,13.57
2018-08-22T18:42:41.282Z,11.23
2018-08-22T18:45:58.125Z,9.03
2018-08-22T18:49:06.546Z,8.13
2018-08-22T18:52:12.122Z,7.73
2018-08-22T18:55:29.057Z,6.67
2018-08-22T18:58:35.311Z,7.10
2018-08-22T19:01:41.676Z,6.67
2018-08-22T19:04:45.746Z,6.20
2018-08-22T19:08:04.064Z,5.90
2018-08-22T19:11:08.564Z,5.50
2018-08-22T19:14:20.839Z,6.20
2018-08-22T19:17:25.538Z,17.67
2018-08-22T19:20:29.405Z,7.53
2018-08-22T19:23:33.179Z,10.63
2018-08-22T19:26:36.933Z,45.20
2018-08-22T19:29:40.657Z,34.60
2018-08-22T19:32:44.429Z,43.20
2018-08-22T19:35:48.282Z,27.00
2018-08-22T19:38:51.863Z,15.63
2018-08-22T19:41:55.398Z,15.97
2018-08-22T19:44:59.227Z,11.10
2018-08-22T19:48:03.166Z,27.43
2018-08-22T19:51:06.738Z,47.93
2018-08-22T19:54:10.537Z,35.33
2018-08-22T19:57:14.296Z,22.03
2018-08-22T20:00:18.281Z,14.47
2018-08-22T20:03:25.937Z,12.67
2018-08-22T20:06:31.284Z,8.17
2018-08-22T20:09:38.258Z,20.93
2018-08-22T20:12:44.946Z,35.27
2018-08-22T20:15:49.083Z,94.87
2018-08-22T20:18:56.845Z,54.47
2018-08-22T20:22:00.488Z,35.10
2018-08-22T20:25:04.218Z,24.97
2018-08-22T20:28:07.758Z,26.70
2018-08-22T20:31:13.483Z,31.77
2018-08-22T20:34:19.436Z,29.70
2018-08-22T20:37:22.834Z,25.87
2018-08-22T20:40:26.375Z,10.70
2018-08-22T20:43:29.963Z,6.57
2018-08-22T20:46:33.428Z,5.30
2018-08-22T20:49:37.001Z,4.50
2018-08-22T20:52:40.946Z,7.73
2018-08-22T20:55:46.267Z,33.63
2018-08-22T20:58:51.525Z,11.10
2018-08-22T21:02:02.385Z,34.20
2018-08-22T21:05:10.060Z,12.87
2018-08-22T21:08:14.793Z,6.70
2018-08-22T21:14:30.534Z,29.40
2018-08-22T21:17:36.433Z,28.40
2018-08-22T21:20:42.458Z,36.07
2018-08-22T21:23:50.258Z,15.57
2018-08-22T21:26:55.973Z,9.30
2018-08-22T21:30:01.074Z,6.50
2018-08-22T21:33:08.438Z,5.20
2018-08-22T21:36:16.038Z,4.57
2018-08-22T21:39:26.448Z,4.93
2018-08-22T21:57:26.937Z,8.63
2018-08-22T22:00:39.768Z,7.13
2018-08-22T22:03:43.278Z,27.10
2018-08-22T22:06:46.693Z,21.37
2018-08-22T22:09:51.868Z,11.50
2018-08-22T22:12:55.918Z,7.83
2018-08-22T22:16:02.630Z,13.33
2018-08-22T22:19:06.302Z,22.03
2018-08-22T22:22:09.705Z,21.57
2018-08-22T22:25:15.260Z,15.50
2018-08-22T22:28:20.424Z,3.43
2018-08-22T22:31:24.520Z,2.50
2018-08-22T22:34:27.895Z,2.50
2018-08-22T22:37:31.352Z,2.50
2018-08-22T22:40:34.958Z,2.57
2018-08-22T22:43:38.372Z,2.13
2018-08-22T22:46:41.752Z,2.57
2018-08-22T22:49:45.071Z,2.60
2018-08-22T22:52:48.570Z,2.20
2018-08-22T22:55:52.176Z,2.30
2018-08-22T22:58:55.621Z,2.30
2018-08-22T23:01:59.051Z,2.40
2018-08-22T23:05:02.774Z,2.57
2018-08-22T23:08:06.029Z,2.50
2018-08-22T23:11:09.384Z,15.93
2018-08-22T23:14:12.886Z,10.23
2018-08-22T23:17:16.212Z,62.53
2018-08-22T23:20:28.137Z,3.63
2018-08-22T23:23:33.840Z,2.40
2018-08-22T23:26:37.036Z,2.40
2018-08-22T23:29:40.355Z,2.47
2018-08-22T23:32:43.664Z,2.60
2018-08-22T23:35:46.961Z,2.60
2018-08-22T23:38:50.271Z,2.70
2018-08-22T23:41:53.500Z,2.40
2018-08-22T23:45:01.005Z,2.60
2018-08-22T23:48:04.752Z,2.93
2018-08-22T23:51:10.846Z,2.70
2018-08-22T23:54:14.857Z,2.47
2018-08-22T23:57:21.128Z,2.90
